Terminal Aerodrome Forecast
Issued by NWS Northern Indiana

Home | Current Version | Previous Version | Graphics & Text | Print | Product List | Glossary On
Versions: 1 2 3 4 5 6 7 8 9 10 11 12 13
000
FTUS43 KIWX 271100
TAFFWA
TAF
KFWA 271120Z 2712/2812 22012G22KT P6SM SCT050
     FM271600 23015G25KT P6SM BKN045
      TEMPO 2716/2720 5SM TSRA BKN030CB
     FM272100 27014KT P6SM VCSH BKN050
     FM280000 29006KT P6SM SCT050
     FM280600 VRB03KT 5SM BR SKC=

USA.gov is the U.S. government's official web portal to all federal, state and local government web resources and services.